Other Surface Observations
Issued by NWS Great Falls, MT

Home | Current Version | Previous Version | Text Only | Print | Product List | Glossary On
Versions: 1 2 3 4 5 6 7 8 9 10 11 12 13 14 15 16 17 18 19 20 21 22 23 24 25 26 27 28 29 30 31 32 33 34 35 36 37 38 39 40 41 42 43 44 45 46 47 48 49 50
000
SXUS55 KTFX 191609
OSOTFX

AREA AWOS OBSERVATIONS
NATIONAL WEATHER SERVICE GREAT FALLS MT
1009 AM MDT Tue Sep 19 2017

METAR K7S0 191455Z AUTO 12000KT 40SM 04/03 A2978 RMK A01 T00440027
METAR K7S1 191555Z AUTO 12000KT 40SM 06/01 A2977 RMK A01 T00610011
METAR K7S1 191455Z AUTO 13000KT 40SM 04/01 A2977 RMK A01 T00440011
METAR K97M 191555Z AUTO 28010KT 40SM 12/08 A2960 RMK A01 T01160083
METAR K97M 191455Z AUTO 25007KT 40SM 12/08 A2958 RMK A01 T01160077
METAR K9S2 191555Z AUTO 28007KT 25SM 11/07 A2950 RMK A01 T01050072
METAR K9S2 191455Z AUTO 25012KT 7SM 11/08 A2947 RMK A01 T01110077
METAR K9S5 191555Z AUTO 15001KT 40SM 08/04 A2975 RMK A01 T00830044
METAR K9S5 191455Z AUTO 21005KT 40SM 05/03 A2975 RMK A01 T00500033
METAR KRPX 191455Z AUTO 25002KT 40SM 08/04 A2959 RMK A01 T00770038
METAR KS34 191555Z AUTO 09000KT 15SM 05/03 A2976 RMK A01 T00500027
METAR KS34 191455Z AUTO 09000KT 0 1/4SM 04/02 A2976 RMK A01 T00440022
METAR KTHM 191455Z AUTO 16000KT 40SM 06/04 A2979 RMK A01 T00550044



USA.gov is the U.S. government's official web portal to all federal, state and local government web resources and services.